createdAt,value
2023-01-06T00:01:54.427Z,21.14
2023-01-06T00:04:39.627Z,21.12
2023-01-06T00:07:24.717Z,21.13
2023-01-06T00:10:11.637Z,21.13
2023-01-06T00:12:57.095Z,21.13
2023-01-06T00:15:42.260Z,21.13
2023-01-06T00:18:27.661Z,21.12
2023-01-06T00:21:14.418Z,21.13
2023-01-06T00:23:59.697Z,21.14
2023-01-06T00:26:44.894Z,21.14
2023-01-06T00:29:30.287Z,21.14
2023-01-06T00:32:15.758Z,21.14
2023-01-06T00:35:01.572Z,21.13
2023-01-06T00:37:46.848Z,21.13
2023-01-06T00:40:33.296Z,21.14
2023-01-06T00:43:18.661Z,21.13
2023-01-06T00:46:04.174Z,21.12
2023-01-06T00:49:03.916Z,21.10
2023-01-06T00:51:52.204Z,21.11
2023-01-06T00:54:37.738Z,21.12
2023-01-06T00:57:22.919Z,21.12
2023-01-06T01:00:11.655Z,21.09
2023-01-06T01:02:57.265Z,21.10
2023-01-06T01:05:43.375Z,21.09
2023-01-06T01:08:29.218Z,21.08
2023-01-06T01:11:34.939Z,21.08
2023-01-06T01:14:21.007Z,21.08
2023-01-06T01:17:07.111Z,21.08
2023-01-06T01:19:55.503Z,21.09
2023-01-06T01:22:41.003Z,21.08
2023-01-06T01:25:26.276Z,21.08
2023-01-06T01:28:11.656Z,21.09
2023-01-06T01:31:01.077Z,21.09
2023-01-06T01:33:46.381Z,21.09
2023-01-06T01:36:32.337Z,21.09
2023-01-06T01:39:19.904Z,21.08
2023-01-06T01:42:11.462Z,21.08
2023-01-06T01:45:04.051Z,21.08
2023-01-06T01:47:55.762Z,21.09
2023-01-06T01:50:47.201Z,21.09
2023-01-06T01:53:44.034Z,21.08
2023-01-06T01:56:32.087Z,21.07
2023-01-06T01:59:28.533Z,21.06
2023-01-06T02:02:16.643Z,21.07
2023-01-06T02:05:03.133Z,21.06
2023-01-06T02:07:49.946Z,21.06
2023-01-06T02:10:35.267Z,21.05
2023-01-06T02:13:22.882Z,21.06
2023-01-06T02:16:11.510Z,21.04
2023-01-06T02:19:10.555Z,21.05
2023-01-06T02:22:13.187Z,21.03
2023-01-06T02:25:36.268Z,21.04
2023-01-06T02:29:00.020Z,21.03
2023-01-06T02:31:58.845Z,21.04
2023-01-06T02:35:03.006Z,21.04
2023-01-06T02:38:07.352Z,21.03
2023-01-06T02:41:11.516Z,21.04
2023-01-06T02:44:03.582Z,21.04
2023-01-06T02:46:57.088Z,21.04
2023-01-06T02:49:46.344Z,21.04
2023-01-06T02:52:42.928Z,21.04
2023-01-06T02:55:36.863Z,21.04
2023-01-06T02:58:51.790Z,21.03
2023-01-06T03:01:49.317Z,21.03
2023-01-06T03:04:43.167Z,21.01
2023-01-06T03:07:32.862Z,21.01
2023-01-06T03:10:22.207Z,21.00
2023-01-06T03:13:43.045Z,20.99
2023-01-06T03:16:28.606Z,20.99
2023-01-06T03:19:14.660Z,20.98
2023-01-06T03:22:01.987Z,20.97
2023-01-06T03:24:47.537Z,20.99
2023-01-06T03:27:33.643Z,20.99
2023-01-06T03:30:19.632Z,21.00
2023-01-06T03:33:32.657Z,20.99
2023-01-06T03:36:39.111Z,20.99
2023-01-06T03:39:34.108Z,20.99
2023-01-06T03:42:59.301Z,20.97
2023-01-06T03:45:53.936Z,20.98
2023-01-06T03:49:29.699Z,20.97
2023-01-06T03:52:27.817Z,20.99
2023-01-06T03:55:25.207Z,20.97
2023-01-06T03:58:12.385Z,20.98
2023-01-06T04:00:58.506Z,20.98
2023-01-06T04:03:46.870Z,20.99
2023-01-06T04:06:32.621Z,20.97
2023-01-06T04:09:21.898Z,20.98
2023-01-06T04:12:26.281Z,20.99
2023-01-06T04:15:16.175Z,20.98
2023-01-06T04:18:04.461Z,20.97
2023-01-06T04:20:52.656Z,20.97
2023-01-06T04:23:47.994Z,20.99
2023-01-06T04:26:34.030Z,20.97
2023-01-06T04:29:19.753Z,20.99
2023-01-06T04:32:05.520Z,21.00
2023-01-06T04:34:51.518Z,20.99
2023-01-06T04:37:37.626Z,21.01
2023-01-06T04:40:23.101Z,21.00
2023-01-06T04:43:13.372Z,21.02
2023-01-06T04:45:59.455Z,21.02
2023-01-06T04:48:45.142Z,21.02
2023-01-06T04:51:30.506Z,21.03
2023-01-06T04:54:16.376Z,21.05
2023-01-06T04:57:01.809Z,21.04
2023-01-06T04:59:46.937Z,21.09
2023-01-06T05:02:32.339Z,21.13
2023-01-06T05:05:17.609Z,21.15
2023-01-06T05:08:02.904Z,21.15
2023-01-06T05:10:48.172Z,21.17
2023-01-06T05:13:35.218Z,21.22
2023-01-06T05:16:27.486Z,21.27
2023-01-06T05:19:13.281Z,21.29
2023-01-06T05:21:58.709Z,21.32
2023-01-06T05:24:44.268Z,21.35
2023-01-06T05:27:30.076Z,21.39
2023-01-06T05:30:15.385Z,21.43
2023-01-06T05:33:02.024Z,21.47
2023-01-06T05:35:48.336Z,21.50
2023-01-06T05:38:34.393Z,21.56
2023-01-06T05:41:20.413Z,21.59
2023-01-06T05:44:06.158Z,21.64
2023-01-06T05:46:51.979Z,21.69
2023-01-06T05:49:37.675Z,21.68
2023-01-06T05:52:22.953Z,21.68
2023-01-06T05:55:09.002Z,21.74
2023-01-06T05:57:54.461Z,21.75
2023-01-06T06:00:39.919Z,21.75
2023-01-06T06:03:25.405Z,21.75
2023-01-06T06:06:10.765Z,21.76
2023-01-06T06:08:56.030Z,21.74
2023-01-06T06:11:41.207Z,21.70
2023-01-06T06:14:26.829Z,21.71
2023-01-06T06:17:12.358Z,21.66
2023-01-06T06:19:57.636Z,21.65
2023-01-06T06:22:43.198Z,21.63
2023-01-06T06:25:29.525Z,21.62
2023-01-06T06:28:15.069Z,21.60
2023-01-06T06:31:14.079Z,21.58
2023-01-06T06:34:01.808Z,21.56
2023-01-06T06:36:47.353Z,21.55
2023-01-06T06:39:32.557Z,21.54
2023-01-06T06:42:17.705Z,21.51
2023-01-06T06:45:02.944Z,21.50
2023-01-06T06:47:48.230Z,21.49
2023-01-06T06:50:33.658Z,21.47
2023-01-06T06:53:18.902Z,21.46
2023-01-06T06:56:05.667Z,21.44
2023-01-06T06:58:51.115Z,21.43
2023-01-06T07:01:36.431Z,21.43
2023-01-06T07:04:21.614Z,21.41
2023-01-06T07:07:06.770Z,21.41
2023-01-06T07:09:52.194Z,21.39
2023-01-06T07:12:37.345Z,21.41
2023-01-06T07:15:22.749Z,21.39
2023-01-06T07:18:08.024Z,21.39
2023-01-06T07:20:54.080Z,21.39
2023-01-06T07:23:39.414Z,21.38
2023-01-06T07:26:24.642Z,21.37
2023-01-06T07:29:09.932Z,21.37
2023-01-06T07:31:55.103Z,21.36
2023-01-06T07:34:40.457Z,21.36
2023-01-06T07:37:25.731Z,21.35
2023-01-06T07:40:11.635Z,21.33
2023-01-06T07:42:56.981Z,21.33
2023-01-06T07:45:42.112Z,21.32
2023-01-06T07:48:27.531Z,21.31
2023-01-06T07:51:12.779Z,21.31
2023-01-06T07:53:57.990Z,21.30
2023-01-06T07:56:44.160Z,21.29
2023-01-06T07:59:29.543Z,21.28
2023-01-06T08:02:14.813Z,21.27
2023-01-06T08:05:00.473Z,21.27
2023-01-06T08:07:45.773Z,21.26
2023-01-06T08:10:31.128Z,21.24
2023-01-06T08:13:16.914Z,21.25
2023-01-06T08:16:08.389Z,21.24
2023-01-06T08:18:53.922Z,21.22
2023-01-06T08:21:39.098Z,21.23
2023-01-06T08:24:24.409Z,21.21
2023-01-06T08:27:09.668Z,21.21
2023-01-06T08:29:55.480Z,21.21
2023-01-06T08:32:41.058Z,21.21
2023-01-06T08:35:26.906Z,21.18
2023-01-06T08:38:12.508Z,21.19
2023-01-06T08:40:59.680Z,21.20
2023-01-06T08:43:46.310Z,21.18
2023-01-06T08:46:31.915Z,21.17
2023-01-06T08:49:17.318Z,21.18
2023-01-06T08:52:02.672Z,21.16
2023-01-06T08:54:48.041Z,21.16
2023-01-06T08:57:33.991Z,21.16
2023-01-06T09:00:19.625Z,21.16
2023-01-06T09:03:05.328Z,21.16
2023-01-06T09:05:56.582Z,21.15
2023-01-06T09:08:42.231Z,21.15
2023-01-06T09:11:27.786Z,21.16
2023-01-06T09:14:16.344Z,21.16
2023-01-06T09:17:01.945Z,21.14
2023-01-06T09:19:47.376Z,21.14
2023-01-06T09:22:32.556Z,21.13
2023-01-06T09:25:18.374Z,21.14
2023-01-06T09:28:03.758Z,21.14
2023-01-06T09:30:49.279Z,21.13
2023-01-06T09:33:34.956Z,21.13
2023-01-06T09:36:20.643Z,21.14
2023-01-06T09:39:05.945Z,21.13
2023-01-06T09:42:14.193Z,21.13
2023-01-06T09:45:14.067Z,21.13
2023-01-06T09:48:03.980Z,21.13
2023-01-06T09:50:56.959Z,21.13
2023-01-06T09:53:49.215Z,21.13
2023-01-06T09:56:34.710Z,21.14
2023-01-06T09:59:19.844Z,21.13
2023-01-06T10:02:14.617Z,21.13
2023-01-06T10:05:00.256Z,21.14
2023-01-06T10:08:23.778Z,21.13
2023-01-06T10:11:19.514Z,21.14
2023-01-06T10:14:19.017Z,21.13
2023-01-06T10:17:07.355Z,21.13
2023-01-06T10:20:14.539Z,21.12
2023-01-06T10:23:21.797Z,21.12
2023-01-06T10:26:22.041Z,21.13
2023-01-06T10:29:18.481Z,21.13
2023-01-06T10:32:06.403Z,21.13
2023-01-06T10:34:52.243Z,21.13
2023-01-06T10:37:41.909Z,21.13
2023-01-06T10:40:30.506Z,21.13
2023-01-06T10:43:15.993Z,21.13
2023-01-06T10:46:01.259Z,21.13
2023-01-06T10:48:49.312Z,21.11
2023-01-06T10:51:49.027Z,21.12
2023-01-06T10:54:34.507Z,21.13
2023-01-06T10:57:35.857Z,21.11
2023-01-06T11:00:23.845Z,21.12
2023-01-06T11:03:32.476Z,21.11
2023-01-06T11:06:30.273Z,21.11
2023-01-06T11:09:41.500Z,21.11
2023-01-06T11:12:29.811Z,21.11
2023-01-06T11:15:22.467Z,21.11
2023-01-06T11:18:24.870Z,21.10
2023-01-06T11:21:14.403Z,21.13
2023-01-06T11:24:15.941Z,21.10
2023-01-06T11:27:14.355Z,21.10
2023-01-06T11:30:19.877Z,21.10
2023-01-06T11:33:13.955Z,21.12
2023-01-06T11:36:09.338Z,21.11
2023-01-06T11:39:04.158Z,21.10
2023-01-06T11:41:52.720Z,21.09
2023-01-06T11:44:41.647Z,21.11
2023-01-06T11:47:27.693Z,21.11
2023-01-06T11:50:20.054Z,21.09
2023-01-06T11:53:16.767Z,21.09
2023-01-06T11:56:18.648Z,21.09
2023-01-06T11:59:10.739Z,21.09
2023-01-06T12:01:59.464Z,21.10
2023-01-06T12:04:52.143Z,21.09
2023-01-06T12:07:49.931Z,21.08
2023-01-06T12:10:37.768Z,21.09
2023-01-06T12:13:23.856Z,21.08
2023-01-06T12:16:32.652Z,21.09
2023-01-06T12:19:40.278Z,21.08
2023-01-06T12:22:33.825Z,21.08
2023-01-06T12:25:21.383Z,21.09
2023-01-06T12:28:18.420Z,21.08
2023-01-06T12:31:10.046Z,21.08
2023-01-06T12:34:16.396Z,21.07
2023-01-06T12:37:09.205Z,21.08
2023-01-06T12:40:01.187Z,21.08
2023-01-06T12:43:05.113Z,21.07
2023-01-06T12:46:32.623Z,21.07
2023-01-06T12:49:24.312Z,21.08
2023-01-06T12:52:17.875Z,21.07
2023-01-06T12:55:04.274Z,21.07
2023-01-06T12:57:59.092Z,21.06
2023-01-06T13:00:53.690Z,21.07
2023-01-06T13:03:57.125Z,21.07
2023-01-06T13:07:18.252Z,21.06
2023-01-06T13:10:30.937Z,21.04
2023-01-06T13:13:54.999Z,21.06
2023-01-06T13:16:53.419Z,21.06
2023-01-06T13:19:51.187Z,21.06
2023-01-06T13:22:59.822Z,21.06
2023-01-06T13:26:08.157Z,21.06
2023-01-06T13:29:14.775Z,21.03
2023-01-06T13:32:03.237Z,21.05
2023-01-06T13:34:59.340Z,21.06
2023-01-06T13:38:05.998Z,21.04
2023-01-06T13:40:53.359Z,21.07
2023-01-06T13:43:39.802Z,21.05
2023-01-06T13:46:27.250Z,21.06
2023-01-06T13:49:12.530Z,21.06
2023-01-06T13:51:58.159Z,21.09
2023-01-06T13:54:43.381Z,21.10
2023-01-06T13:57:33.575Z,21.14
2023-01-06T14:00:43.166Z,21.18
2023-01-06T14:03:28.618Z,21.18
2023-01-06T14:06:40.788Z,21.24
2023-01-06T14:09:27.369Z,21.30
2023-01-06T14:12:35.187Z,21.33
2023-01-06T14:15:31.755Z,21.37
2023-01-06T14:18:35.178Z,21.40
2023-01-06T14:21:28.384Z,21.47
2023-01-06T14:24:31.407Z,21.52
2023-01-06T14:27:17.067Z,21.55
2023-01-06T14:30:19.351Z,21.56
2023-01-06T14:33:22.355Z,21.62
2023-01-06T14:36:15.795Z,21.67
2023-01-06T14:39:03.384Z,21.67
2023-01-06T14:42:06.512Z,21.71
2023-01-06T14:44:55.612Z,21.73
2023-01-06T14:47:47.636Z,21.75
2023-01-06T14:50:47.124Z,21.78
2023-01-06T14:53:43.051Z,21.79
2023-01-06T14:56:31.151Z,21.82
2023-01-06T14:59:16.752Z,21.85
2023-01-06T15:02:13.897Z,21.87
2023-01-06T15:04:59.899Z,21.87
2023-01-06T15:07:59.011Z,21.90
2023-01-06T15:10:52.667Z,21.91
2023-01-06T15:13:37.935Z,21.94
2023-01-06T15:16:32.705Z,21.98
2023-01-06T15:19:18.077Z,22.00
2023-01-06T15:22:08.394Z,21.99
2023-01-06T15:24:54.863Z,21.99
2023-01-06T15:27:48.260Z,22.00
2023-01-06T15:30:36.771Z,22.03
2023-01-06T15:33:25.453Z,22.05
2023-01-06T15:36:20.791Z,22.06
2023-01-06T15:39:10.325Z,22.07
2023-01-06T15:41:56.966Z,22.08
2023-01-06T15:45:04.346Z,22.08
2023-01-06T15:47:51.355Z,22.09
2023-01-06T15:50:36.881Z,22.12
2023-01-06T15:53:28.162Z,22.12
2023-01-06T15:56:21.016Z,22.16
2023-01-06T15:59:14.119Z,22.17
2023-01-06T16:01:59.938Z,22.20
2023-01-06T16:04:46.270Z,22.24
2023-01-06T16:07:41.232Z,22.25
2023-01-06T16:10:37.737Z,22.27
2023-01-06T16:13:29.489Z,22.26
2023-01-06T16:16:15.001Z,22.29
2023-01-06T16:19:16.255Z,22.32
2023-01-06T16:22:08.186Z,22.33
2023-01-06T16:24:54.169Z,22.37
2023-01-06T16:27:39.481Z,22.38
2023-01-06T16:30:36.388Z,22.38
2023-01-06T16:33:39.413Z,22.37
2023-01-06T16:36:25.355Z,22.37
2023-01-06T16:39:10.588Z,22.36
2023-01-06T16:41:58.912Z,22.36
2023-01-06T16:44:44.225Z,22.35
2023-01-06T16:47:29.516Z,22.34
2023-01-06T16:50:36.029Z,22.32
2023-01-06T16:53:22.943Z,22.34
2023-01-06T16:56:16.566Z,22.30
2023-01-06T16:59:02.385Z,22.31
2023-01-06T17:01:48.815Z,22.29
2023-01-06T17:04:35.802Z,22.30
2023-01-06T17:07:21.612Z,22.27
2023-01-06T17:10:15.406Z,22.27
2023-01-06T17:13:25.423Z,22.27
2023-01-06T17:16:10.877Z,22.26
2023-01-06T17:19:07.150Z,22.27
2023-01-06T17:22:02.851Z,22.26
2023-01-06T17:24:52.722Z,22.26
2023-01-06T17:27:38.917Z,22.24
2023-01-06T17:30:24.212Z,22.23
2023-01-06T17:33:12.103Z,22.21
2023-01-06T17:35:57.672Z,22.19
2023-01-06T17:38:47.520Z,22.18
2023-01-06T17:41:32.843Z,22.18
2023-01-06T17:44:21.951Z,22.18
2023-01-06T17:47:29.843Z,22.19
2023-01-06T17:50:33.863Z,22.18
2023-01-06T17:53:54.330Z,22.18
2023-01-06T17:56:40.183Z,22.20
2023-01-06T17:59:25.572Z,22.19
2023-01-06T18:02:44.364Z,22.18
2023-01-06T18:05:36.063Z,22.20
2023-01-06T18:08:26.487Z,22.20
2023-01-06T18:11:12.254Z,22.19
2023-01-06T18:14:15.538Z,22.20
2023-01-06T18:17:30.400Z,22.25
2023-01-06T18:20:16.234Z,22.25
2023-01-06T18:23:02.285Z,22.21
2023-01-06T18:25:52.736Z,22.19
2023-01-06T18:28:38.181Z,22.18
2023-01-06T18:31:24.062Z,22.18
2023-01-06T18:34:36.059Z,22.18
2023-01-06T18:37:35.639Z,22.17
2023-01-06T18:40:25.002Z,22.16
2023-01-06T18:43:29.738Z,22.15
2023-01-06T18:46:17.649Z,22.13
2023-01-06T18:49:09.632Z,22.12
2023-01-06T18:51:55.382Z,22.16
2023-01-06T18:54:40.723Z,22.15
2023-01-06T18:57:30.842Z,22.16
2023-01-06T19:00:52.678Z,22.20
2023-01-06T19:03:41.637Z,22.20
2023-01-06T19:06:35.810Z,22.20
2023-01-06T19:09:46.419Z,22.20
2023-01-06T19:12:35.988Z,22.19
2023-01-06T19:15:24.722Z,22.20
2023-01-06T19:18:18.311Z,22.23
2023-01-06T19:21:13.434Z,22.24
2023-01-06T19:24:00.556Z,22.25
2023-01-06T19:26:45.954Z,22.20
2023-01-06T19:29:33.424Z,22.14
2023-01-06T19:32:20.429Z,22.18
2023-01-06T19:35:22.709Z,22.21
2023-01-06T19:38:45.324Z,22.32
2023-01-06T19:41:33.632Z,22.39
2023-01-06T19:44:20.826Z,22.47
2023-01-06T19:47:30.232Z,22.50
2023-01-06T19:50:25.477Z,22.53
2023-01-06T19:53:40.751Z,22.54
2023-01-06T19:56:44.533Z,22.53
2023-01-06T19:59:33.912Z,22.52
2023-01-06T20:02:44.320Z,22.52
2023-01-06T20:05:31.921Z,22.50
2023-01-06T20:08:17.424Z,22.49
2023-01-06T20:11:03.199Z,22.46
2023-01-06T20:13:50.144Z,22.44
2023-01-06T20:16:36.000Z,22.40
2023-01-06T20:19:21.730Z,22.37
2023-01-06T20:22:07.099Z,22.33
2023-01-06T20:24:52.454Z,22.31
2023-01-06T20:27:37.726Z,22.29
2023-01-06T20:30:23.141Z,22.25
2023-01-06T20:33:10.020Z,22.23
2023-01-06T20:35:55.463Z,22.19
2023-01-06T20:38:40.796Z,22.17
2023-01-06T20:41:26.083Z,22.13
2023-01-06T20:44:13.211Z,22.09
2023-01-06T20:46:58.511Z,22.07
2023-01-06T20:49:43.811Z,22.06
2023-01-06T20:52:29.213Z,22.05
2023-01-06T20:55:14.836Z,22.03
2023-01-06T20:58:00.639Z,22.00
2023-01-06T21:00:46.288Z,21.99
2023-01-06T21:03:49.851Z,21.96
2023-01-06T21:06:35.813Z,21.97
2023-01-06T21:09:21.214Z,21.95
2023-01-06T21:12:06.652Z,21.93
2023-01-06T21:14:52.404Z,21.92
2023-01-06T21:17:37.815Z,21.91
2023-01-06T21:20:23.345Z,21.93
2023-01-06T21:23:10.050Z,21.91
2023-01-06T21:25:55.519Z,21.91
2023-01-06T21:28:40.781Z,21.90
2023-01-06T21:31:26.006Z,21.88
2023-01-06T21:34:11.176Z,21.87
2023-01-06T21:36:56.631Z,21.84
2023-01-06T21:39:41.861Z,21.82
2023-01-06T21:42:45.573Z,21.77
2023-01-06T21:45:30.850Z,21.73
2023-01-06T21:48:16.122Z,21.69
2023-01-06T21:51:01.632Z,21.67
2023-01-06T21:53:47.195Z,21.65
2023-01-06T21:56:34.880Z,21.64
2023-01-06T21:59:20.701Z,21.62
2023-01-06T22:02:06.635Z,21.62
2023-01-06T22:04:52.612Z,21.61
2023-01-06T22:07:43.209Z,21.60
2023-01-06T22:10:28.813Z,21.59
2023-01-06T22:13:18.427Z,21.58
2023-01-06T22:16:03.785Z,21.58
2023-01-06T22:18:49.039Z,21.59
2023-01-06T22:21:36.053Z,21.58
2023-01-06T22:24:22.419Z,21.58
2023-01-06T22:27:07.755Z,21.57
2023-01-06T22:29:53.149Z,21.57
2023-01-06T22:32:43.348Z,21.57
2023-01-06T22:35:28.928Z,21.57
2023-01-06T22:38:14.569Z,21.57
2023-01-06T22:41:00.169Z,21.57
2023-01-06T22:43:45.564Z,21.56
2023-01-06T22:46:30.892Z,21.57
2023-01-06T22:49:16.063Z,21.56
2023-01-06T22:52:01.335Z,21.56
2023-01-06T22:54:46.620Z,21.57
2023-01-06T22:57:31.976Z,21.55
2023-01-06T23:00:18.732Z,21.56
2023-01-06T23:03:04.141Z,21.55
2023-01-06T23:06:09.731Z,21.55
2023-01-06T23:09:00.586Z,21.55
2023-01-06T23:11:46.351Z,21.54
2023-01-06T23:14:31.852Z,21.54
2023-01-06T23:17:17.197Z,21.54
2023-01-06T23:20:02.780Z,21.54
2023-01-06T23:22:48.295Z,21.53
2023-01-06T23:25:33.626Z,21.53
2023-01-06T23:28:18.752Z,21.53
2023-01-06T23:31:07.476Z,21.53
2023-01-06T23:33:56.231Z,21.53
2023-01-06T23:36:42.166Z,21.54
2023-01-06T23:39:27.445Z,21.53
2023-01-06T23:42:12.788Z,21.54
2023-01-06T23:44:58.010Z,21.53
2023-01-06T23:47:43.366Z,21.54
2023-01-06T23:50:28.471Z,21.53
2023-01-06T23:53:13.719Z,21.54
2023-01-06T23:56:07.849Z,21.54
2023-01-06T23:58:55.826Z,21.53
